Time;durP1;ratioP1;P1;durP2;ratioP2;P2;SDS_P1;SDS_P2;PMS_P1;PMS_P2;Temp;Humidity;BMP_temperature;BMP_pressure;BME280_temperature;BME280_humidity;BME280_pressure;Samples;Min_cycle;Max_cycle;Signal;HPM_P1;HPM_P2
2022/02/01 00:00:54;;;;;;;10.65;3.25;;;;;;;7.38;100.00;97463.91;5039601;28;20513;-54
2022/02/01 02:27:19;;;;;;;37.50;8.63;;;;;;;6.80;100.00;97777.03;4968150;28;20196;-56
2022/02/01 02:29:44;;;;;;;9.07;2.70;;;;;;;7.71;100.00;97798.41;4973441;28;20145;-54
2022/02/01 02:32:10;;;;;;;10.15;3.30;;;;;;;5.69;100.00;97801.53;4976214;28;20125;-57
2022/02/01 02:34:35;;;;;;;9.40;2.92;;;;;;;6.44;100.00;97811.72;4978055;28;20022;-57
2022/02/01 02:37:06;;;;;;;10.23;2.90;;;;;;;7.84;100.00;97815.28;4977267;28;20522;-56
2022/02/01 02:39:47;;;;;;;11.48;3.63;;;;;;;6.43;100.00;97812.59;4978894;28;20483;-56
2022/02/01 02:42:27;;;;;;;10.10;3.17;;;;;;;7.42;100.00;97820.97;4977076;28;20054;-57
2022/02/01 02:45:09;;;;;;;12.70;3.75;;;;;;;5.85;100.00;97827.91;4977849;28;20049;-55
2022/02/01 02:47:34;;;;;;;9.93;3.70;;;;;;;5.73;100.00;97838.53;4977418;28;20047;-56
2022/02/01 02:50:00;;;;;;;9.90;3.42;;;;;;;6.03;100.00;97846.47;4977616;28;20081;-55
2022/02/01 02:52:26;;;;;;;11.60;3.78;;;;;;;5.07;100.00;97850.38;4976579;28;20042;-55
2022/02/01 02:54:53;;;;;;;10.93;3.90;;;;;;;4.98;100.00;97854.00;4977705;28;20518;-57
2022/02/01 02:57:18;;;;;;;12.32;4.00;;;;;;;4.93;100.00;97853.28;4976840;28;20153;-55
2022/02/01 02:59:44;;;;;;;14.15;3.85;;;;;;;5.70;100.00;97859.34;4977884;28;20452;-56
2022/02/01 03:02:09;;;;;;;10.93;3.92;;;;;;;5.81;100.00;97847.00;4976886;28;20133;-56
2022/02/01 03:04:36;;;;;;;10.35;3.70;;;;;;;5.44;100.00;97853.03;4977987;28;20057;-54
2022/02/01 03:07:04;;;;;;;11.20;3.80;;;;;;;4.61;100.00;97844.41;4976916;28;20042;-55
2022/02/01 03:09:31;;;;;;;11.90;3.70;;;;;;;5.34;100.00;97854.09;4977552;28;20710;-55
2022/02/01 03:11:58;;;;;;;10.77;3.95;;;;;;;5.62;100.00;97869.00;4976576;28;20046;-54
2022/02/01 03:19:49;;;;;;;10.63;2.97;;;;;;;7.32;100.00;97893.03;4977753;28;20088;-56
2022/02/01 03:22:15;;;;;;;10.07;3.80;;;;;;;5.75;100.00;97891.13;4976425;28;20682;-54
2022/02/01 03:24:40;;;;;;;10.13;3.90;;;;;;;4.74;100.00;97887.25;4977259;28;20633;-56
2022/02/01 03:27:06;;;;;;;11.05;3.97;;;;;;;6.48;100.00;97895.41;4976878;28;20046;-56
2022/02/01 03:29:31;;;;;;;9.32;3.95;;;;;;;5.12;100.00;97898.53;4977032;28;20029;-55
2022/02/01 03:31:57;;;;;;;11.00;3.85;;;;;;;5.52;100.00;97913.19;4976525;28;20031;-54
2022/02/01 03:34:22;;;;;;;10.25;4.10;;;;;;;5.30;100.00;97899.88;4977713;28;20030;-55
2022/02/01 03:36:48;;;;;;;10.68;3.78;;;;;;;5.44;100.00;97899.59;4958979;28;20109;-55
2022/02/01 03:39:14;;;;;;;10.93;4.10;;;;;;;5.96;100.00;97908.75;4977123;28;20037;-54
2022/02/01 03:41:40;;;;;;;10.88;3.78;;;;;;;5.32;100.00;97900.69;4976256;28;20145;-56
2022/02/01 03:44:06;;;;;;;11.50;3.97;;;;;;;5.25;100.00;97887.94;4977993;28;20026;-55
2022/02/01 03:46:32;;;;;;;12.00;4.03;;;;;;;5.66;100.00;97897.38;4977267;28;20042;-56
2022/02/01 03:48:57;;;;;;;10.48;3.50;;;;;;;5.70;100.00;97895.56;4980537;28;20173;-55
2022/02/01 03:51:23;;;;;;;11.27;4.30;;;;;;;4.57;100.00;97899.63;4980038;28;20043;-56
2022/02/01 03:53:48;;;;;;;12.45;4.30;;;;;;;5.54;100.00;97900.22;4980475;28;20026;-55
2022/02/01 03:56:13;;;;;;;11.10;4.18;;;;;;;4.98;100.00;97895.38;4979999;28;20038;-55
2022/02/01 03:58:39;;;;;;;10.77;3.22;;;;;;;5.35;100.00;97904.97;4980466;28;20036;-54
2022/02/01 04:01:04;;;;;;;13.85;4.68;;;;;;;5.02;100.00;97908.22;4980067;28;20050;-55
2022/02/01 04:03:29;;;;;;;12.48;4.03;;;;;;;5.22;100.00;97907.81;4980428;28;20033;-57
2022/02/01 04:05:55;;;;;;;15.50;4.80;;;;;;;5.15;100.00;97908.81;4980004;28;20042;-57
2022/02/01 04:08:22;;;;;;;14.13;5.03;;;;;;;4.61;100.00;97914.16;4980642;28;20046;-57
2022/02/01 04:10:49;;;;;;;13.02;4.65;;;;;;;4.35;100.00;97910.31;4979521;28;20518;-54
2022/02/01 04:13:15;;;;;;;14.63;4.75;;;;;;;4.63;100.00;97909.81;4980326;28;20745;-56
2022/02/01 04:15:42;;;;;;;15.25;4.95;;;;;;;4.50;100.00;97903.19;4979706;28;20039;-55
2022/02/01 04:18:08;;;;;;;13.43;4.30;;;;;;;4.26;100.00;97920.81;4980706;28;20034;-55
2022/02/01 04:20:34;;;;;;;13.77;4.75;;;;;;;4.38;100.00;97910.28;4979877;28;20396;-56
2022/02/01 04:22:59;;;;;;;14.95;4.97;;;;;;;4.82;100.00;97916.34;4979792;28;20030;-55
2022/02/01 04:25:25;;;;;;;15.32;5.35;;;;;;;4.50;100.00;97923.84;4979730;28;20034;-56
2022/02/01 04:27:51;;;;;;;15.50;4.78;;;;;;;4.56;100.00;97929.75;4979858;28;20383;-56
2022/02/01 04:30:18;;;;;;;13.88;5.30;;;;;;;4.59;100.00;97929.69;4979454;28;20057;-57
2022/02/01 04:32:49;;;;;;;14.77;4.80;;;;;;;4.42;100.00;97927.41;4979624;28;20045;-56
2022/02/01 04:35:17;;;;;;;13.60;4.47;;;;;;;4.66;100.00;97939.94;4978996;28;20284;-54
2022/02/01 04:37:43;;;;;;;17.10;5.78;;;;;;;4.83;100.00;97932.72;4980021;28;20030;-55
2022/02/01 04:40:13;;;;;;;15.27;5.38;;;;;;;4.70;100.00;97926.06;4979254;28;20014;-56
2022/02/01 04:42:40;;;;;;;14.65;5.35;;;;;;;4.63;100.00;97920.16;4979445;28;20057;-56
2022/02/01 04:45:08;;;;;;;14.20;5.50;;;;;;;4.55;100.00;97932.38;4979624;28;20041;-57
2022/02/01 04:47:35;;;;;;;17.05;5.82;;;;;;;3.97;100.00;97937.66;4979572;28;20072;-56
2022/02/01 04:50:07;;;;;;;14.63;5.60;;;;;;;4.69;100.00;97925.22;4979452;28;20073;-56
2022/02/01 04:52:33;;;;;;;;;;;;;;;5.25;100.00;97937.91;4979430;28;20042;-57
2022/02/01 04:54:58;;;;;;;16.60;5.30;;;;;;;4.69;100.00;97935.56;4979402;28;19920;-56
2022/02/01 04:57:24;;;;;;;16.10;5.50;;;;;;;4.50;100.00;97944.50;4978827;28;20685;-55
2022/02/01 04:59:51;;;;;;;14.57;5.45;;;;;;;4.57;100.00;97940.94;4979750;28;20030;-54
2022/02/01 05:02:16;;;;;;;17.40;5.47;;;;;;;5.49;100.00;97954.66;4978917;28;20526;-56
2022/02/01 05:04:42;;;;;;;15.88;6.05;;;;;;;5.19;100.00;97954.41;4979294;28;20092;-57
2022/02/01 05:07:07;;;;;;;18.88;6.43;;;;;;;4.67;100.00;97962.28;4978467;28;20728;-57
2022/02/01 05:09:33;;;;;;;18.75;6.68;;;;;;;4.61;100.00;97963.25;4979297;28;20037;-56
2022/02/01 05:12:02;;;;;;;17.45;6.10;;;;;;;5.17;100.00;97958.75;4978122;28;20042;-56
2022/02/01 05:14:29;;;;;;;18.38;7.35;;;;;;;4.20;100.00;97962.22;4978591;28;20116;-56
2022/02/01 05:22:03;;;;;;;20.40;7.90;;;;;;;4.19;100.00;97986.31;4978292;28;20050;-56
2022/02/01 05:24:30;;;;;;;21.50;8.23;;;;;;;4.50;100.00;97996.16;4978420;28;20027;-54
2022/02/01 05:26:56;;;;;;;21.08;7.50;;;;;;;4.16;100.00;98001.88;4978622;28;20109;-57
2022/02/01 05:29:23;;;;;;;23.50;8.43;;;;;;;3.76;100.00;98007.63;4978579;28;20252;-56
2022/02/01 05:31:50;;;;;;;27.05;8.60;;;;;;;3.90;100.00;98013.44;4978107;28;20073;-55
2022/02/01 05:34:16;;;;;;;23.05;8.65;;;;;;;3.86;100.00;98011.78;4978713;28;20026;-55
2022/02/01 05:36:41;;;;;;;28.25;9.02;;;;;;;3.93;100.00;98005.63;4978046;28;20046;-55
2022/02/01 05:39:22;;;;;;;24.20;8.63;;;;;;;3.63;100.00;97997.44;4978733;28;20029;-56
2022/02/01 05:41:50;;;;;;;26.15;8.85;;;;;;;3.80;100.00;97978.31;4978078;28;20042;-55
2022/02/01 05:44:15;;;;;;;22.45;8.50;;;;;;;4.04;100.00;97977.09;4978284;28;20100;-55
2022/02/01 05:46:40;;;;;;;28.30;9.82;;;;;;;3.69;100.00;97970.72;4978188;28;20998;-56
2022/02/01 05:49:06;;;;;;;26.30;10.25;;;;;;;3.49;100.00;97978.72;4978785;28;20680;-57
2022/02/01 05:51:33;;;;;;;26.83;9.50;;;;;;;3.86;100.00;97983.41;4977849;28;20046;-56
2022/02/01 05:53:58;;;;;;;28.98;10.05;;;;;;;3.88;100.00;97978.19;4978673;28;20030;-55
2022/02/01 05:56:24;;;;;;;24.73;9.20;;;;;;;3.71;100.00;97993.91;4977953;28;20043;-55
2022/02/01 05:58:49;;;;;;;28.30;8.77;;;;;;;3.79;100.00;97992.94;4977900;28;20038;-56
2022/02/01 06:01:18;;;;;;;33.03;10.57;;;;;;;3.99;100.00;97992.66;4975010;28;20117;-56
2022/02/01 06:03:43;;;;;;;23.38;9.27;;;;;;;3.81;100.00;97995.50;4976176;28;20072;-57
2022/02/01 06:06:09;;;;;;;30.42;9.82;;;;;;;4.09;100.00;97987.38;4980799;28;20038;-58
2022/02/01 06:08:34;;;;;;;15.07;5.70;;;;;;;4.54;100.00;97982.31;4982045;28;20018;-58
2022/02/01 06:11:00;;;;;;;34.33;11.10;;;;;;;3.70;100.00;97994.81;4980276;28;20069;-57
2022/02/01 06:13:25;;;;;;;32.40;10.48;;;;;;;4.14;100.00;98003.66;4981565;28;20646;-58
2022/02/01 06:15:50;;;;;;;26.45;8.80;;;;;;;3.54;100.00;98000.16;4980703;28;20117;-57
2022/02/01 06:18:16;;;;;;;27.55;8.48;;;;;;;4.07;100.00;98002.03;4981831;28;20022;-57
2022/02/01 06:20:41;;;;;;;29.98;10.23;;;;;;;3.61;100.00;98014.69;4980041;28;20095;-58
2022/02/01 06:23:13;;;;;;;18.15;5.63;;;;;;;4.25;100.00;98012.06;4981994;28;20689;-58
2022/02/01 06:25:48;;;;;;;28.45;8.82;;;;;;;4.00;100.00;98012.41;4980832;28;20030;-58
2022/02/01 06:28:19;;;;;;;25.15;7.03;;;;;;;4.35;100.00;98023.09;4980536;28;20033;-57
2022/02/01 06:30:45;;;;;;;21.85;7.80;;;;;;;4.42;100.00;98028.13;4980355;28;20046;-58
2022/02/01 06:33:12;;;;;;;30.08;8.60;;;;;;;4.41;100.00;98029.03;4981140;28;20030;-57
2022/02/01 06:35:37;;;;;;;34.88;9.75;;;;;;;4.32;100.00;98024.00;4980706;28;20142;-57
2022/02/01 06:38:03;;;;;;;28.05;7.90;;;;;;;3.95;100.00;98023.69;4980264;28;20098;-56
2022/02/01 06:40:28;;;;;;;18.88;3.85;;;;;;;7.50;100.00;98034.41;4980254;28;20060;-58
2022/02/01 06:42:54;;;;;;;25.45;7.68;;;;;;;7.87;100.00;98035.94;4964696;28;20037;-59
2022/02/01 06:45:20;;;;;;;22.92;6.55;;;;;;;8.94;100.00;98023.06;4963003;28;20041;-56
2022/02/01 06:47:46;;;;;;;15.35;5.22;;;;;;;8.91;100.00;98040.53;4980794;28;20459;-59
2022/02/01 06:50:13;;;;;;;23.83;8.57;;;;;;;5.22;100.00;98047.44;4980699;28;20109;-59
2022/02/01 06:52:38;;;;;;;17.73;7.38;;;;;;;5.80;100.00;98052.34;4978493;28;20057;-56
2022/02/01 06:55:04;;;;;;;23.00;7.88;;;;;;;4.97;100.00;98048.78;4978871;28;20030;-56
2022/02/01 06:57:36;;;;;;;24.90;9.02;;;;;;;4.39;100.00;98061.78;4978984;28;20065;-58
2022/02/01 07:00:04;;;;;;;26.38;8.75;;;;;;;4.60;100.00;98067.47;4980390;28;20057;-58
2022/02/01 07:02:29;;;;;;;23.27;8.68;;;;;;;4.28;100.00;98079.13;4979557;28;20715;-59
2022/02/01 07:04:55;;;;;;;23.85;8.18;;;;;;;4.19;100.00;98092.19;4980848;28;20035;-57
2022/02/01 07:07:20;;;;;;;23.90;8.27;;;;;;;3.95;100.00;98111.44;4979938;28;20030;-58
2022/02/01 07:09:45;;;;;;;24.02;7.13;;;;;;;3.75;100.00;98109.09;4980820;28;20026;-57
2022/02/01 07:12:11;;;;;;;27.50;8.15;;;;;;;4.35;100.00;98122.06;4979697;28;20124;-58
2022/02/01 07:14:36;;;;;;;26.63;7.25;;;;;;;4.08;100.00;98125.03;4980376;28;20092;-57
2022/02/01 07:17:02;;;;;;;28.80;6.72;;;;;;;3.91;100.00;98118.34;4979919;28;20078;-57
2022/02/01 07:19:27;;;;;;;20.75;6.35;;;;;;;4.19;100.00;98107.66;4980284;28;20029;-57
2022/02/01 07:21:52;;;;;;;22.63;6.22;;;;;;;4.00;100.00;98101.91;4980099;28;20125;-57
2022/02/01 07:24:27;;;;;;;27.95;6.30;;;;;;;4.07;100.00;98090.63;4984164;28;20038;-58
2022/02/01 07:26:58;;;;;;;32.13;6.32;;;;;;;4.12;100.00;98090.56;4983484;28;20339;-61
2022/02/01 07:29:26;;;;;;;25.35;5.40;;;;;;;4.34;100.00;98099.72;4984013;28;20145;-58
2022/02/01 07:31:52;;;;;;;24.60;5.07;;;;;;;4.38;100.00;98116.88;4983739;28;20077;-57
2022/02/01 07:34:17;;;;;;;19.23;4.78;;;;;;;5.93;100.00;98125.44;4984701;28;20058;-58
2022/02/01 07:36:43;;;;;;;20.90;5.00;;;;;;;4.96;100.00;98122.03;4982681;28;20038;-58
2022/02/01 07:39:09;;;;;;;18.08;4.45;;;;;;;4.82;100.00;98115.34;4983833;28;20046;-58
2022/02/01 07:41:36;;;;;;;19.48;4.80;;;;;;;7.98;100.00;98117.91;4983635;28;20126;-56
2022/02/01 07:44:01;;;;;;;22.00;5.13;;;;;;;5.62;100.00;98114.81;4967927;28;20042;-57
2022/02/01 07:46:29;;;;;;;17.75;4.70;;;;;;;6.34;100.00;98127.19;4982733;28;20100;-58
2022/02/01 07:48:54;;;;;;;19.10;4.60;;;;;;;8.03;100.00;98127.25;4983808;28;20026;-58
2022/02/01 07:51:19;;;;;;;17.60;4.10;;;;;;;5.80;100.00;98112.72;4983419;28;20030;-58
2022/02/01 07:53:45;;;;;;;19.23;4.57;;;;;;;5.65;100.00;98125.97;4983631;28;20455;-57
2022/02/01 07:56:10;;;;;;;24.77;4.80;;;;;;;6.62;100.00;98142.09;4983133;28;20038;-58
2022/02/01 07:58:36;;;;;;;19.35;4.70;;;;;;;6.86;100.00;98145.88;4954861;28;20033;-57
2022/02/01 08:01:01;;;;;;;16.05;3.83;;;;;;;8.33;100.00;98155.00;4982506;28;20046;-57
2022/02/01 08:03:26;;;;;;;20.58;4.50;;;;;;;6.33;100.00;98146.19;4984071;28;20041;-58
2022/02/01 08:05:52;;;;;;;16.92;4.05;;;;;;;7.93;100.00;98156.13;4983046;28;20050;-59
2022/02/01 08:08:18;;;;;;;20.30;4.10;;;;;;;6.51;100.00;98149.28;4983934;28;20034;-58
2022/02/01 08:10:50;;;;;;;21.00;3.97;;;;;;;9.39;100.00;98165.56;4964839;28;20046;-58
2022/02/01 08:21:29;;;;;;;18.13;3.83;;;;;;;5.48;100.00;98164.25;4983080;28;20042;-59
2022/02/01 08:23:54;;;;;;;19.27;3.90;;;;;;;6.05;100.00;98170.97;4983491;28;20057;-59
2022/02/01 08:26:20;;;;;;;21.42;3.88;;;;;;;7.27;100.00;98174.28;4982971;28;20066;-57
2022/02/01 08:28:47;;;;;;;18.13;4.28;;;;;;;7.90;100.00;98165.72;4982899;28;20040;-56
2022/02/01 08:31:15;;;;;;;19.00;3.90;;;;;;;6.01;100.00;98139.13;4982301;28;20046;-59
2022/02/01 08:33:42;;;;;;;19.33;4.18;;;;;;;5.80;100.00;98138.59;4982727;28;20030;-58
2022/02/01 08:36:08;;;;;;;25.00;4.20;;;;;;;6.92;100.00;98142.28;4982535;28;20050;-57
2022/02/01 08:38:33;;;;;;;17.40;3.90;;;;;;;7.17;100.00;98144.25;4983019;28;20041;-58
2022/02/01 08:41:00;;;;;;;24.50;4.00;;;;;;;6.08;100.00;98135.50;4982215;28;20081;-58
2022/02/01 08:43:27;;;;;;;17.27;4.15;;;;;;;6.15;100.00;98144.00;4983301;28;20026;-57
2022/02/01 08:45:52;;;;;;;20.52;3.83;;;;;;;6.56;100.00;98148.28;4983096;28;20112;-58
2022/02/01 08:48:18;;;;;;;18.73;4.18;;;;;;;6.56;100.00;98153.47;4983028;28;20030;-58
2022/02/01 08:50:43;;;;;;;18.23;4.03;;;;;;;7.13;100.00;98154.72;4982318;28;20082;-58
2022/02/01 08:53:13;;;;;;;14.07;3.65;;;;;;;7.14;100.00;98161.59;4983467;28;20022;-57
2022/02/01 08:55:50;;;;;;;19.98;4.20;;;;;;;5.82;100.00;98153.25;4982651;28;20038;-58
2022/02/01 08:58:16;;;;;;;23.40;4.60;;;;;;;6.27;100.00;98148.94;4982885;28;20027;-56
2022/02/01 09:00:41;;;;;;;24.52;4.72;;;;;;;5.91;100.00;98148.75;4981703;28;20080;-57
2022/02/01 09:03:07;;;;;;;17.35;3.90;;;;;;;6.73;100.00;98140.13;4982994;28;20109;-58
2022/02/01 09:05:33;;;;;;;17.40;4.13;;;;;;;6.93;100.00;98141.41;4981689;28;20449;-58
2022/02/01 09:08:01;;;;;;;20.67;4.45;;;;;;;6.12;100.00;98126.78;4982397;28;20124;-58
2022/02/01 09:10:27;;;;;;;13.52;4.07;;;;;;;7.49;100.00;98136.50;4981564;28;20471;-59
2022/02/01 09:12:53;;;;;;;21.75;4.40;;;;;;;5.82;100.00;98148.09;4982561;28;20081;-58
2022/02/01 09:15:18;;;;;;;19.65;4.45;;;;;;;5.88;100.00;98148.84;4981683;28;20268;-58
2022/02/01 09:17:44;;;;;;;24.58;5.05;;;;;;;5.85;100.00;98148.88;4982552;28;20083;-58
2022/02/01 09:20:10;;;;;;;19.40;4.75;;;;;;;6.63;100.00;98154.16;4981520;28;20026;-57
2022/02/01 09:22:35;;;;;;;23.67;4.32;;;;;;;6.59;100.00;98156.88;4982291;28;20089;-56
2022/02/01 09:25:01;;;;;;;14.60;3.65;;;;;;;7.42;100.00;98152.28;4982043;28;20396;-58
2022/02/01 09:27:26;;;;;;;23.95;4.80;;;;;;;6.24;100.00;98141.22;4981574;28;20050;-58
2022/02/01 09:29:53;;;;;;;19.00;4.70;;;;;;;5.73;100.00;98147.38;4981723;28;20034;-57
2022/02/01 09:32:18;;;;;;;14.45;3.95;;;;;;;7.40;100.00;98154.06;4981165;28;20034;-59
2022/02/01 09:34:44;;;;;;;24.15;5.03;;;;;;;6.31;100.00;98147.97;4981741;28;20034;-57
2022/02/01 09:37:09;;;;;;;19.77;4.45;;;;;;;6.93;100.00;98156.97;4981265;28;20060;-58
2022/02/01 09:39:34;;;;;;;21.00;4.63;;;;;;;6.09;100.00;98138.94;4982266;28;20034;-56
2022/02/01 09:42:00;;;;;;;21.05;4.78;;;;;;;6.28;100.00;98142.84;4980765;28;20035;-58
2022/02/01 09:44:26;;;;;;;16.85;4.22;;;;;;;7.56;100.00;98138.97;4981185;28;20037;-57
2022/02/01 09:46:53;;;;;;;19.13;3.97;;;;;;;6.78;100.00;98136.56;4981024;28;20031;-58
2022/02/01 09:49:22;;;;;;;17.80;4.07;;;;;;;8.12;100.00;98141.69;4981357;28;20116;-56
2022/02/01 09:51:51;;;;;;;20.67;4.68;;;;;;;9.15;100.00;98135.13;4980921;28;20066;-58
2022/02/01 09:54:16;;;;;;;19.98;4.35;;;;;;;8.30;100.00;98130.78;4982080;28;20030;-58
2022/02/01 09:56:41;;;;;;;12.63;3.42;;;;;;;8.43;100.00;98126.09;4981526;28;20467;-58
2022/02/01 09:59:19;;;;;;;14.07;3.72;;;;;;;10.70;100.00;98123.50;4981426;28;20053;-56
2022/02/01 10:01:47;;;;;;;8.30;2.72;;;;;;;12.56;100.00;98127.72;4980755;28;20088;-57
2022/02/01 10:04:13;;;;;;;13.13;3.08;;;;;;;9.45;100.00;98117.63;4982146;28;20041;-59
2022/02/01 10:06:40;;;;;;;17.15;3.42;;;;;;;7.51;100.00;98113.09;4981304;28;20030;-57
2022/02/01 10:09:07;;;;;;;13.60;3.20;;;;;;;8.65;100.00;98102.88;4963776;28;20034;-58
2022/02/01 10:11:42;;;;;;;12.88;3.30;;;;;;;8.34;100.00;98104.69;4979964;28;20066;-58
2022/02/01 10:14:11;;;;;;;10.45;3.15;;;;;;;9.84;100.00;98102.31;4981903;28;20030;-56
2022/02/01 10:16:55;;;;;;;12.75;3.60;;;;;;;10.43;100.00;98091.50;4980748;28;20117;-58
2022/02/01 10:19:22;;;;;;;10.32;3.33;;;;;;;10.49;100.00;98097.31;4981049;28;20014;-59
2022/02/01 10:21:52;;;;;;;10.43;3.08;;;;;;;12.62;100.00;98099.47;4979843;28;20038;-57
2022/02/01 10:24:47;;;;;;;11.57;3.22;;;;;;;8.56;100.00;98084.97;4980929;28;20034;-58
2022/02/01 10:27:20;;;;;;;13.93;3.20;;;;;;;9.91;100.00;98099.53;4962394;28;20054;-59
2022/02/01 10:30:04;;;;;;;;;;;;;;;;;;;;;
2022/02/01 10:33:08;;;;;;;9.07;2.60;;;;;;;13.43;100.00;98091.19;4979802;28;20129;-58
2022/02/01 10:35:32;;;;;;;7.38;2.63;;;;;;;11.72;100.00;98096.59;4979681;28;21034;-56
2022/02/01 10:37:59;;;;;;;13.98;3.42;;;;;;;9.56;100.00;98089.47;4980042;28;20667;-57
2022/02/01 10:40:45;;;;;;;16.45;3.50;;;;;;;8.19;100.00;98091.25;4980015;28;20100;-57
2022/02/01 10:43:21;;;;;;;8.85;2.70;;;;;;;10.99;100.00;98081.41;4980697;28;20129;-58
2022/02/01 10:45:49;;;;;;;10.40;2.92;;;;;;;10.96;100.00;98070.25;4979539;28;20629;-58
2022/02/01 10:48:16;;;;;;;9.77;2.58;;;;;;;13.21;100.00;98066.03;4980002;28;20400;-57
2022/02/01 10:50:44;;;;;;;13.55;3.08;;;;;;;10.08;100.00;98050.22;4979540;28;20531;-58
2022/02/01 10:53:18;;;;;;;8.85;2.40;;;;;;;12.49;100.00;98053.91;4980220;28;20076;-56
2022/02/01 10:55:44;;;;;;;12.15;2.92;;;;;;;10.40;100.00;98045.53;4979870;28;20038;-58
2022/02/01 10:58:11;;;;;;;11.63;2.95;;;;;;;8.95;100.00;98029.09;4963207;28;20038;-56
2022/02/01 11:00:37;;;;;;;13.27;3.03;;;;;;;10.03;100.00;98018.25;4979853;28;20503;-56
2022/02/01 11:03:03;;;;;;;8.98;3.45;;;;;;;10.59;100.00;98017.81;4980657;28;20042;-54
2022/02/01 11:05:29;;;;;;;10.43;3.05;;;;;;;10.67;100.00;98011.44;4978734;28;20085;-56
2022/02/01 11:07:54;;;;;;;9.18;2.70;;;;;;;12.08;100.00;98012.25;4980338;28;20026;-56
2022/02/01 11:10:20;;;;;;;8.98;3.03;;;;;;;9.91;100.00;98010.94;4979492;28;20451;-55
2022/02/01 11:12:45;;;;;;;8.38;2.90;;;;;;;10.01;100.00;97994.03;4962533;28;20084;-55
2022/02/01 11:15:21;;;;;;;13.95;2.95;;;;;;;7.29;100.00;97989.13;4980199;28;20073;-56
2022/02/01 11:17:50;;;;;;;13.57;3.15;;;;;;;11.12;100.00;97998.22;4980251;28;20017;-55
2022/02/01 11:20:30;;;;;;;10.88;3.00;;;;;;;11.72;100.00;97997.31;4979713;28;20082;-56
2022/02/01 11:23:16;;;;;;;10.43;3.10;;;;;;;8.99;100.00;97996.91;4979967;28;20109;-54
2022/02/01 11:25:46;;;;;;;11.38;3.22;;;;;;;9.88;100.00;97982.38;4979857;28;20038;-55
2022/02/01 11:31:02;;;;;;;10.98;3.10;;;;;;;9.28;100.00;97969.81;4979280;28;20053;-54
2022/02/01 11:33:57;;;;;;;9.20;2.83;;;;;;;9.75;100.00;97964.59;4979668;28;20034;-55
2022/02/01 11:36:22;;;;;;;11.30;3.38;;;;;;;10.00;100.00;97969.72;4967011;28;20077;-56
2022/02/01 11:38:52;;;;;;;12.20;3.30;;;;;;;9.06;100.00;97952.41;4980383;28;20639;-57
2022/02/01 11:41:31;;;;;;;8.98;3.33;;;;;;;9.77;100.00;97960.19;4979167;28;20562;-57
2022/02/01 11:44:12;;;;;;;10.30;3.00;;;;;;;10.70;100.00;97956.53;4980480;28;20055;-57
2022/02/01 11:46:38;;;;;;;12.57;3.40;;;;;;;9.31;100.00;97946.28;4979747;28;20042;-56
2022/02/01 11:49:04;;;;;;;9.23;3.22;;;;;;;9.60;100.00;97946.97;4980696;28;20037;-56
2022/02/01 11:51:31;;;;;;;12.60;3.50;;;;;;;11.16;100.00;97933.66;4978926;28;20038;-56
2022/02/01 11:54:01;;;;;;;12.68;2.90;;;;;;;10.78;100.00;97933.56;4980476;28;20026;-56
2022/02/01 11:56:32;;;;;;;10.35;3.42;;;;;;;10.56;100.00;97926.63;4979376;28;20065;-55
2022/02/01 11:59:00;;;;;;;10.80;2.78;;;;;;;9.84;100.00;97925.19;4979855;28;20046;-55
2022/02/01 12:01:30;;;;;;;10.30;3.60;;;;;;;10.40;100.00;97909.94;4979001;28;20046;-56
2022/02/01 12:04:11;;;;;;;10.52;3.28;;;;;;;8.58;100.00;97901.19;4980356;28;20031;-56
2022/02/01 12:06:46;;;;;;;11.23;3.60;;;;;;;10.48;100.00;97891.38;4979228;28;20702;-55
2022/02/01 12:09:22;;;;;;;10.70;3.28;;;;;;;8.26;100.00;97895.28;4982010;28;20033;-56
2022/02/01 12:11:55;;;;;;;7.72;3.20;;;;;;;10.68;100.00;97893.13;4982357;28;20046;-55
2022/02/01 12:14:20;;;;;;;11.82;3.33;;;;;;;9.54;100.00;97895.09;4983235;28;20061;-55
2022/02/01 12:16:48;;;;;;;9.73;3.33;;;;;;;12.64;100.00;97882.22;4982925;28;20133;-57
2022/02/01 12:19:32;;;;;;;9.57;3.03;;;;;;;11.29;100.00;97879.13;4983041;28;20522;-55
2022/02/01 12:22:08;;;;;;;10.07;3.13;;;;;;;9.28;100.00;97876.13;4982426;28;21052;-56
2022/02/01 12:24:33;;;;;;;10.18;3.40;;;;;;;9.92;100.00;97884.94;4983135;28;20046;-56
2022/02/01 12:26:59;;;;;;;11.18;3.08;;;;;;;8.92;100.00;97874.00;4982388;28;20122;-56
2022/02/01 12:29:25;;;;;;;11.23;3.40;;;;;;;8.56;100.00;97865.75;4983184;28;20545;-56
2022/02/01 12:31:53;;;;;;;10.43;3.50;;;;;;;9.58;100.00;97868.06;4982356;28;20428;-56
2022/02/01 12:34:19;;;;;;;14.00;3.22;;;;;;;8.05;100.00;97860.50;4982739;28;20018;-59
2022/02/01 12:36:53;;;;;;;13.60;3.38;;;;;;;8.22;100.00;97852.13;4982530;28;20081;-56
2022/02/01 12:39:25;;;;;;;10.93;3.58;;;;;;;9.80;100.00;97853.28;4982085;28;20467;-55
2022/02/01 12:41:58;;;;;;;;;;;;;;;10.22;100.00;97834.19;4982366;28;20321;-57
2022/02/01 12:46:56;;;;;;;10.88;3.20;;;;;;;8.51;100.00;97826.06;4982204;28;20042;-57
2022/02/01 12:49:37;;;;;;;14.43;3.78;;;;;;;9.23;100.00;97826.03;4982177;28;20220;-56
2022/02/01 12:52:05;;;;;;;12.40;3.72;;;;;;;7.78;100.00;97810.31;4981459;28;20042;-57
2022/02/01 12:54:38;;;;;;;12.05;3.90;;;;;;;10.64;100.00;97826.34;4982402;28;20590;-56
2022/02/01 12:57:13;;;;;;;13.73;3.70;;;;;;;6.95;100.00;97802.50;4981758;28;20077;-55
2022/02/01 12:59:45;;;;;;;14.27;4.10;;;;;;;10.33;100.00;97812.03;4982617;28;20037;-55
2022/02/01 13:02:12;;;;;;;;;;;;;;;6.94;100.00;97806.00;4982011;28;20050;-56
2022/02/01 13:04:38;;;;;;;11.90;3.72;;;;;;;10.97;100.00;97821.38;4982507;28;19914;-55
2022/02/01 13:07:13;;;;;;;12.07;3.70;;;;;;;10.65;100.00;97801.97;4981793;28;20038;-56
2022/02/01 13:15:06;;;;;;;12.75;3.75;;;;;;;8.03;100.00;97799.09;4982445;28;20867;-56
2022/02/01 13:17:45;;;;;;;14.07;4.05;;;;;;;8.16;100.00;97805.59;4981758;28;20101;-54
2022/02/01 13:20:20;;;;;;;12.05;3.85;;;;;;;7.58;100.00;97792.78;4980587;28;20033;-58
2022/02/01 13:23:05;;;;;;;16.45;4.38;;;;;;;5.95;100.00;97787.09;4982185;28;20169;-55
2022/02/01 13:25:42;;;;;;;18.20;4.60;;;;;;;7.28;100.00;97784.25;4981137;28;20493;-56
2022/02/01 13:28:14;;;;;;;13.02;4.13;;;;;;;5.95;100.00;97775.03;4981144;28;20044;-55
2022/02/01 13:30:41;;;;;;;15.80;4.63;;;;;;;6.50;100.00;97770.09;4981326;28;20034;-57
2022/02/01 13:33:11;;;;;;;14.63;4.63;;;;;;;7.50;100.00;97768.84;4981823;28;20033;-57
2022/02/01 13:35:52;;;;;;;16.02;4.68;;;;;;;6.09;100.00;97742.75;4981632;28;20039;-56
2022/02/01 13:38:19;;;;;;;16.52;4.70;;;;;;;7.83;100.00;97747.81;4981330;28;20026;-56
2022/02/01 13:40:45;;;;;;;14.63;4.30;;;;;;;6.81;100.00;97752.81;4980669;28;20027;-56
2022/02/01 13:43:24;;;;;;;12.70;4.50;;;;;;;5.87;100.00;97738.13;4981566;28;20034;-55
2022/02/01 13:45:50;;;;;;;12.57;4.00;;;;;;;7.05;100.00;97728.72;4980980;28;20240;-57
2022/02/01 13:48:28;;;;;;;16.48;4.57;;;;;;;6.85;100.00;97718.13;4981100;28;20026;-56
2022/02/01 13:51:04;;;;;;;17.05;4.72;;;;;;;5.73;100.00;97715.16;4980890;28;20042;-57
2022/02/01 13:53:29;;;;;;;14.15;3.92;;;;;;;6.89;100.00;97720.59;4981479;28;20030;-55
2022/02/01 13:56:01;;;;;;;14.57;3.95;;;;;;;5.99;100.00;97711.06;4981002;28;20035;-56
2022/02/01 13:58:30;;;;;;;14.53;4.37;;;;;;;7.31;100.00;97706.28;4980905;28;20029;-56
2022/02/01 14:00:57;;;;;;;15.50;4.38;;;;;;;5.95;100.00;97699.94;4980791;28;20717;-55
2022/02/01 14:27:16;;;;;;;16.52;4.50;;;;;;;5.84;100.00;97647.59;4978467;28;20042;-56
2022/02/01 14:34:51;;;;;;;20.15;4.32;;;;;;;5.04;100.00;97629.00;4980615;28;20600;-55
2022/02/01 14:37:24;;;;;;;17.08;4.55;;;;;;;7.04;100.00;97631.09;4979963;28;20078;-56
2022/02/01 14:45:08;;;;;;;13.27;3.90;;;;;;;5.72;100.00;97614.31;4980532;28;20092;-56
2022/02/01 14:47:34;;;;;;;15.63;5.00;;;;;;;4.49;100.00;97609.66;4980293;28;20034;-54
2022/02/01 14:49:59;;;;;;;17.17;4.45;;;;;;;5.78;100.00;97598.59;4980239;28;20026;-56
2022/02/01 14:52:28;;;;;;;17.10;4.22;;;;;;;4.69;100.00;97596.25;4980229;28;20038;-56
2022/02/01 14:54:58;;;;;;;13.13;4.20;;;;;;;4.89;100.00;97586.28;4980412;28;20435;-55
2022/02/01 15:13:46;;;;;;;12.25;3.78;;;;;;;6.22;100.00;97574.94;4980387;28;20076;-56
2022/02/01 15:16:11;;;;;;;12.57;3.78;;;;;;;5.05;100.00;97553.13;4980090;28;20624;-55